createdAt,value
2022-11-23T00:00:19.149Z,8.40
2022-11-23T00:01:19.183Z,7.40
2022-11-23T00:02:19.167Z,9.10
2022-11-23T00:03:19.099Z,9.20
2022-11-23T00:04:19.114Z,9.40
2022-11-23T00:05:19.076Z,10.30
2022-11-23T00:06:19.097Z,9.10
2022-11-23T00:07:19.120Z,7.70
2022-11-23T00:08:19.069Z,10.40
2022-11-23T00:09:19.045Z,12.00
2022-11-23T00:10:19.044Z,9.70
2022-11-23T00:11:19.030Z,11.50
2022-11-23T00:12:19.058Z,10.90
2022-11-23T00:13:18.993Z,9.30
2022-11-23T00:14:19.010Z,10.40
2022-11-23T00:15:18.968Z,10.20
2022-11-23T00:16:18.984Z,10.10
2022-11-23T00:17:18.944Z,8.00
2022-11-23T00:18:18.995Z,8.80
2022-11-23T00:19:18.933Z,11.60
2022-11-23T00:20:18.942Z,9.50
2022-11-23T00:21:18.916Z,11.00
2022-11-23T00:22:18.925Z,7.60
2022-11-23T00:23:18.902Z,8.70
2022-11-23T00:24:18.906Z,9.40
2022-11-23T00:25:18.937Z,9.10
2022-11-23T00:26:18.895Z,8.60
2022-11-23T00:27:18.842Z,10.20
2022-11-23T00:28:18.868Z,11.00
2022-11-23T00:29:18.834Z,8.30
2022-11-23T00:30:18.836Z,6.80
2022-11-23T00:31:18.809Z,11.00
2022-11-23T00:32:18.808Z,8.80
2022-11-23T00:33:18.789Z,9.30
2022-11-23T00:34:18.819Z,8.00
2022-11-23T00:35:18.789Z,9.30
2022-11-23T00:36:18.770Z,9.70
2022-11-23T00:37:18.742Z,9.00
2022-11-23T00:38:18.748Z,9.90
2022-11-23T00:39:18.719Z,8.20
2022-11-23T00:40:18.742Z,8.00
2022-11-23T00:41:18.717Z,6.10
2022-11-23T00:42:18.708Z,11.20
2022-11-23T00:43:18.676Z,10.50
2022-11-23T00:44:18.713Z,8.50
2022-11-23T00:45:18.759Z,10.10
2022-11-23T00:46:18.664Z,10.90
2022-11-23T00:47:18.642Z,11.20
2022-11-23T00:48:18.644Z,9.20
2022-11-23T00:49:18.611Z,8.40
2022-11-23T00:50:18.619Z,9.80
2022-11-23T00:51:18.615Z,9.00
2022-11-23T00:52:18.609Z,8.40
2022-11-23T00:53:18.565Z,10.80
2022-11-23T00:54:18.594Z,8.60
2022-11-23T00:55:18.548Z,8.80
2022-11-23T00:56:18.589Z,9.00
2022-11-23T00:57:18.529Z,9.90
2022-11-23T00:58:18.543Z,11.40
2022-11-23T00:59:18.525Z,11.70
2022-11-23T01:00:18.515Z,8.10
2022-11-23T01:01:18.536Z,8.50
2022-11-23T01:02:18.520Z,9.50
2022-11-23T01:03:18.465Z,10.10
2022-11-23T01:04:18.487Z,9.70
2022-11-23T01:05:18.439Z,11.00
2022-11-23T01:06:18.472Z,8.30
2022-11-23T01:07:18.462Z,8.50
2022-11-23T01:08:18.435Z,9.80
2022-11-23T01:09:18.415Z,9.40
2022-11-23T01:10:18.411Z,10.80
2022-11-23T01:11:18.380Z,9.80
2022-11-23T01:12:18.403Z,9.30
2022-11-23T01:13:18.370Z,8.80
2022-11-23T01:14:18.410Z,10.30
2022-11-23T01:15:18.336Z,9.30
2022-11-23T01:16:23.832Z,9.70
2022-11-23T01:17:18.327Z,8.70
2022-11-23T01:18:18.381Z,9.60
2022-11-23T01:19:18.293Z,10.00
2022-11-23T01:20:18.309Z,9.60
2022-11-23T01:21:18.274Z,7.60
2022-11-23T01:22:18.283Z,10.80
2022-11-23T01:23:18.252Z,8.00
2022-11-23T01:24:18.281Z,8.70
2022-11-23T01:25:18.233Z,9.20
2022-11-23T01:26:18.250Z,10.10
2022-11-23T01:27:18.210Z,9.10
2022-11-23T01:28:18.222Z,7.60
2022-11-23T01:29:18.206Z,10.50
2022-11-23T01:30:18.232Z,11.20
2022-11-23T01:31:18.209Z,11.20
2022-11-23T01:32:18.188Z,8.30
2022-11-23T01:33:18.151Z,9.40
2022-11-23T01:34:18.175Z,8.90
2022-11-23T01:35:18.143Z,8.30
2022-11-23T01:36:18.144Z,9.70
2022-11-23T01:37:18.106Z,8.20
2022-11-23T01:38:18.653Z,8.70
2022-11-23T01:39:18.082Z,12.40
2022-11-23T01:40:18.121Z,7.50
2022-11-23T01:41:18.151Z,8.30
2022-11-23T01:42:18.227Z,11.00
2022-11-23T01:43:18.037Z,9.50
2022-11-23T01:44:18.060Z,8.40
2022-11-23T01:45:18.016Z,8.80
2022-11-23T01:46:18.046Z,8.80
2022-11-23T01:47:18.009Z,8.50
2022-11-23T01:48:18.017Z,8.90
2022-11-23T01:49:17.987Z,9.70
2022-11-23T01:50:17.991Z,7.00
2022-11-23T01:51:17.984Z,7.80
2022-11-23T01:52:17.966Z,9.70
2022-11-23T01:53:17.938Z,7.50
2022-11-23T01:54:17.948Z,9.20
2022-11-23T01:55:17.932Z,7.90
2022-11-23T01:56:17.939Z,9.50
2022-11-23T01:57:17.903Z,10.40
2022-11-23T01:58:17.907Z,7.30
2022-11-23T01:59:17.880Z,8.50
2022-11-23T02:00:17.897Z,10.00
2022-11-23T02:01:17.963Z,10.40
2022-11-23T02:02:17.931Z,10.10
2022-11-23T02:03:17.830Z,8.90
2022-11-23T02:04:17.839Z,8.70
2022-11-23T02:05:17.845Z,9.90
2022-11-23T02:06:17.829Z,9.80
2022-11-23T02:07:17.861Z,8.90
2022-11-23T02:08:17.817Z,8.00
2022-11-23T02:09:17.776Z,8.50
2022-11-23T02:10:17.779Z,10.00
2022-11-23T02:11:17.750Z,6.80
2022-11-23T02:12:17.767Z,11.30
2022-11-23T02:13:17.747Z,8.70
2022-11-23T02:14:23.096Z,10.00
2022-11-23T02:15:17.732Z,6.80
2022-11-23T02:16:17.717Z,9.00
2022-11-23T02:17:17.680Z,7.30
2022-11-23T02:18:17.732Z,7.80
2022-11-23T02:19:17.689Z,9.20
2022-11-23T02:20:17.671Z,8.30
2022-11-23T02:21:17.646Z,8.50
2022-11-23T02:22:17.649Z,7.90
2022-11-23T02:23:17.628Z,10.00
2022-11-23T02:24:17.656Z,8.70
2022-11-23T02:25:17.615Z,7.90
2022-11-23T02:26:17.608Z,8.30
2022-11-23T02:27:17.585Z,8.10
2022-11-23T02:28:17.588Z,7.10
2022-11-23T02:29:17.557Z,11.30
2022-11-23T02:30:17.595Z,8.60
2022-11-23T02:31:17.537Z,8.10
2022-11-23T02:32:17.546Z,8.30
2022-11-23T02:33:17.531Z,7.90
2022-11-23T02:34:17.531Z,8.30
2022-11-23T02:35:17.512Z,5.80
2022-11-23T02:36:17.548Z,8.90
2022-11-23T02:37:17.473Z,8.20
2022-11-23T02:38:17.495Z,9.00
2022-11-23T02:39:17.449Z,7.10
2022-11-23T02:40:17.462Z,10.00
2022-11-23T02:41:17.470Z,9.80
2022-11-23T02:42:17.439Z,8.90
2022-11-23T02:43:17.418Z,9.10
2022-11-23T02:44:17.421Z,9.50
2022-11-23T02:45:17.388Z,9.00
2022-11-23T02:46:17.440Z,9.10
2022-11-23T02:47:17.451Z,7.70
2022-11-23T02:48:17.378Z,6.90
2022-11-23T02:49:17.341Z,7.40
2022-11-23T02:50:17.388Z,9.10
2022-11-23T02:51:17.324Z,7.00
2022-11-23T02:52:17.350Z,8.90
2022-11-23T02:53:17.310Z,7.60
2022-11-23T02:54:17.317Z,9.70
2022-11-23T02:55:17.280Z,10.50
2022-11-23T02:56:17.307Z,7.20
2022-11-23T02:57:17.273Z,8.80
2022-11-23T02:58:17.274Z,8.20
2022-11-23T02:59:17.241Z,7.30
2022-11-23T03:00:17.265Z,10.70
2022-11-23T03:01:17.243Z,8.00
2022-11-23T03:02:17.230Z,11.60
2022-11-23T03:03:17.227Z,8.50
2022-11-23T03:04:17.208Z,9.30
2022-11-23T03:05:17.184Z,7.00
2022-11-23T03:06:17.206Z,8.70
2022-11-23T03:07:17.176Z,5.70
2022-11-23T03:08:17.184Z,9.90
2022-11-23T03:09:17.137Z,10.50
2022-11-23T03:10:17.145Z,7.00
2022-11-23T03:11:17.111Z,6.90
2022-11-23T03:12:17.142Z,6.50
2022-11-23T03:13:17.093Z,8.30
2022-11-23T03:14:17.116Z,7.80
2022-11-23T03:15:17.072Z,10.40
2022-11-23T03:16:17.097Z,7.60
2022-11-23T03:17:17.074Z,8.90
2022-11-23T03:18:17.035Z,8.20
2022-11-23T03:19:17.085Z,8.50
2022-11-23T03:20:17.015Z,8.90
2022-11-23T03:21:17.040Z,9.50
2022-11-23T03:22:17.005Z,8.90
2022-11-23T03:23:17.008Z,8.30
2022-11-23T03:24:16.985Z,8.60
2022-11-23T03:25:17.006Z,9.00
2022-11-23T03:26:16.963Z,8.10
2022-11-23T03:27:16.977Z,7.60
2022-11-23T03:28:16.933Z,9.00
2022-11-23T03:29:16.955Z,8.80
2022-11-23T03:30:16.949Z,9.40
2022-11-23T03:31:16.924Z,6.60
2022-11-23T03:32:16.912Z,9.00
2022-11-23T03:33:16.919Z,7.50
2022-11-23T03:34:16.874Z,8.50
2022-11-23T03:35:16.891Z,8.40
2022-11-23T03:36:16.869Z,7.70
2022-11-23T03:37:16.867Z,7.10
2022-11-23T03:38:16.834Z,9.70
2022-11-23T03:39:16.841Z,6.10
2022-11-23T03:40:16.832Z,8.70
2022-11-23T03:41:16.853Z,8.40
2022-11-23T03:42:16.784Z,7.00
2022-11-23T03:43:16.825Z,8.20
2022-11-23T03:44:16.778Z,8.20
2022-11-23T03:45:16.776Z,7.30
2022-11-23T03:46:16.748Z,8.40
2022-11-23T03:47:16.765Z,7.80
2022-11-23T03:48:16.718Z,5.40
2022-11-23T03:49:16.749Z,7.90
2022-11-23T03:50:16.698Z,7.30
2022-11-23T03:51:16.713Z,7.30
2022-11-23T03:52:16.711Z,7.20
2022-11-23T03:53:16.692Z,7.10
2022-11-23T03:54:16.659Z,6.70
2022-11-23T03:55:16.668Z,7.90
2022-11-23T03:56:16.659Z,7.70
2022-11-23T03:57:16.647Z,6.50
2022-11-23T03:58:16.643Z,7.80
2022-11-23T03:59:16.630Z,7.50
2022-11-23T04:00:16.602Z,6.30
2022-11-23T04:01:16.715Z,8.50
2022-11-23T04:02:16.576Z,6.60
2022-11-23T04:03:16.600Z,8.30
2022-11-23T04:04:16.588Z,6.10
2022-11-23T04:05:16.563Z,7.60
2022-11-23T04:06:16.538Z,6.20
2022-11-23T04:07:16.642Z,7.40
2022-11-23T04:08:16.514Z,5.60
2022-11-23T04:09:16.532Z,7.00
2022-11-23T04:10:16.500Z,7.10
2022-11-23T04:11:16.503Z,9.70
2022-11-23T04:12:16.466Z,6.50
2022-11-23T04:13:16.511Z,6.10
2022-11-23T04:14:16.465Z,8.60
2022-11-23T04:15:16.460Z,6.30
2022-11-23T04:16:16.421Z,7.60
2022-11-23T04:17:16.458Z,6.30
2022-11-23T04:18:16.422Z,9.20
2022-11-23T04:19:16.417Z,7.00
2022-11-23T04:20:16.411Z,9.60
2022-11-23T04:21:16.407Z,8.30
2022-11-23T04:22:16.363Z,8.50
2022-11-23T04:23:16.388Z,11.90
2022-11-23T04:24:16.339Z,7.30
2022-11-23T04:25:16.376Z,11.20
2022-11-23T04:26:16.337Z,8.60
2022-11-23T04:27:16.344Z,15.40
2022-11-23T04:28:16.297Z,16.00
2022-11-23T04:29:16.312Z,13.70
2022-11-23T04:30:16.303Z,15.30
2022-11-23T04:31:16.308Z,13.70
2022-11-23T04:32:16.273Z,15.50
2022-11-23T04:33:16.264Z,13.20
2022-11-23T04:34:16.247Z,19.00
2022-11-23T04:35:16.246Z,17.00
2022-11-23T04:36:16.232Z,19.80
2022-11-23T04:37:16.233Z,18.00
2022-11-23T04:38:16.191Z,17.20
2022-11-23T04:39:16.202Z,16.50
2022-11-23T04:40:16.189Z,17.00
2022-11-23T04:41:16.185Z,18.20
2022-11-23T04:42:16.169Z,21.30
2022-11-23T04:43:16.161Z,18.60
2022-11-23T04:44:16.126Z,21.20
2022-11-23T04:45:16.139Z,16.70
2022-11-23T04:46:16.121Z,20.20
2022-11-23T04:47:16.183Z,18.40
2022-11-23T04:48:16.094Z,19.90
2022-11-23T04:49:16.098Z,19.50
2022-11-23T04:50:16.079Z,18.00
2022-11-23T04:51:16.080Z,21.00
2022-11-23T04:52:16.042Z,15.10
2022-11-23T04:53:16.084Z,18.10
2022-11-23T04:54:16.029Z,19.90
2022-11-23T04:55:16.035Z,17.20
2022-11-23T04:56:16.021Z,16.40
2022-11-23T04:57:16.011Z,17.10
2022-11-23T04:58:16.005Z,16.40
2022-11-23T04:59:15.996Z,16.70
2022-11-23T05:00:15.964Z,14.90
2022-11-23T05:01:16.068Z,18.40
2022-11-23T05:02:15.937Z,21.00
2022-11-23T05:03:15.955Z,24.20
2022-11-23T05:04:17.956Z,26.50
2022-11-23T05:05:15.929Z,21.30
2022-11-23T05:06:15.896Z,17.90
2022-11-23T05:07:15.982Z,19.10
2022-11-23T05:08:15.879Z,21.30
2022-11-23T05:09:15.911Z,19.80
2022-11-23T05:10:15.850Z,26.60
2022-11-23T05:11:15.866Z,21.00
2022-11-23T05:12:15.833Z,26.30
2022-11-23T05:13:15.841Z,23.60
2022-11-23T05:14:15.815Z,22.30
2022-11-23T05:15:15.844Z,20.90
2022-11-23T05:16:15.791Z,20.40
2022-11-23T05:17:15.800Z,23.20
2022-11-23T05:18:15.770Z,18.30
2022-11-23T05:19:15.785Z,15.20
2022-11-23T05:20:15.777Z,18.20
2022-11-23T05:21:15.766Z,21.20
2022-11-23T05:22:15.732Z,19.90
2022-11-23T05:23:15.738Z,20.30
2022-11-23T05:24:15.706Z,25.20
2022-11-23T05:25:15.721Z,20.50
2022-11-23T05:26:15.707Z,19.90
2022-11-23T05:27:15.715Z,20.80
2022-11-23T05:28:38.473Z,22.60
2022-11-23T05:29:15.685Z,21.10
2022-11-23T05:30:15.648Z,22.50
2022-11-23T05:31:15.689Z,20.90
2022-11-23T05:32:15.627Z,19.60
2022-11-23T05:33:15.673Z,22.60
2022-11-23T05:34:15.634Z,22.00
2022-11-23T05:35:15.613Z,19.70
2022-11-23T05:36:15.586Z,19.80
2022-11-23T05:37:15.608Z,23.90
2022-11-23T05:38:15.561Z,19.00
2022-11-23T05:39:15.569Z,20.40
2022-11-23T05:40:15.541Z,17.60
2022-11-23T05:41:15.551Z,21.30
2022-11-23T05:42:15.531Z,18.20
2022-11-23T05:43:15.527Z,22.60
2022-11-23T05:44:15.504Z,21.80
2022-11-23T05:45:15.541Z,17.70
2022-11-23T05:46:15.475Z,18.30
2022-11-23T05:47:15.499Z,20.30
2022-11-23T05:48:15.459Z,22.80
2022-11-23T05:49:15.481Z,22.00
2022-11-23T05:50:15.441Z,19.50
2022-11-23T05:51:15.442Z,21.60
2022-11-23T05:52:15.424Z,20.00
2022-11-23T05:53:15.444Z,18.30
2022-11-23T05:54:15.389Z,20.10
2022-11-23T05:55:15.407Z,22.10
2022-11-23T05:56:15.374Z,15.90
2022-11-23T05:57:15.398Z,21.20
2022-11-23T05:58:15.358Z,17.60
2022-11-23T05:59:15.414Z,19.20
2022-11-23T06:00:15.322Z,20.10
2022-11-23T06:01:15.337Z,21.50
2022-11-23T06:02:15.318Z,20.70
2022-11-23T06:03:15.338Z,21.80
2022-11-23T06:04:15.397Z,21.30
2022-11-23T06:05:15.294Z,19.40
2022-11-23T06:06:15.292Z,23.10
2022-11-23T06:07:15.366Z,21.50
2022-11-23T06:08:15.253Z,22.60
2022-11-23T06:09:15.258Z,19.40
2022-11-23T06:10:15.232Z,19.80
2022-11-23T06:11:15.229Z,20.50
2022-11-23T06:12:15.207Z,20.30
2022-11-23T06:13:15.213Z,18.70
2022-11-23T06:14:15.179Z,19.30
2022-11-23T06:15:15.239Z,22.40
2022-11-23T06:16:15.157Z,19.80
2022-11-23T06:17:15.169Z,20.10
2022-11-23T06:18:15.135Z,22.40
2022-11-23T06:19:15.152Z,21.50
2022-11-23T06:20:15.140Z,21.20
2022-11-23T06:21:15.155Z,20.60
2022-11-23T06:22:15.094Z,18.30
2022-11-23T06:23:15.109Z,20.00
2022-11-23T06:24:15.089Z,17.30
2022-11-23T06:25:15.083Z,20.30
2022-11-23T06:26:15.072Z,17.20
2022-11-23T06:27:17.968Z,19.30
2022-11-23T06:28:15.030Z,21.30
2022-11-23T06:29:15.042Z,20.40
2022-11-23T06:30:15.017Z,19.60
2022-11-23T06:31:15.034Z,17.20
2022-11-23T06:32:15.006Z,17.50
2022-11-23T06:33:15.013Z,21.90
2022-11-23T06:34:14.972Z,16.90
2022-11-23T06:35:14.978Z,21.70
2022-11-23T06:36:14.958Z,17.90
2022-11-23T06:37:14.976Z,20.90
2022-11-23T06:38:14.929Z,20.00
2022-11-23T06:39:14.944Z,19.60
2022-11-23T06:40:14.907Z,19.20
2022-11-23T06:41:14.921Z,19.90
2022-11-23T06:42:37.820Z,20.50
2022-11-23T06:43:14.912Z,17.20
2022-11-23T06:44:14.870Z,19.90
2022-11-23T06:45:14.882Z,18.70
2022-11-23T06:46:14.842Z,16.60
2022-11-23T06:47:17.714Z,19.10
2022-11-23T06:48:14.848Z,21.00
2022-11-23T06:49:14.847Z,21.20
2022-11-23T06:50:14.808Z,19.20
2022-11-23T06:51:14.819Z,18.50
2022-11-23T06:52:14.785Z,19.90
2022-11-23T06:53:14.794Z,16.20
2022-11-23T06:54:14.854Z,19.90
2022-11-23T06:55:14.770Z,16.70
2022-11-23T06:56:14.744Z,18.70
2022-11-23T06:57:14.752Z,16.00
2022-11-23T06:58:14.718Z,16.50
2022-11-23T06:59:14.753Z,14.80
2022-11-23T07:00:14.702Z,13.70
2022-11-23T07:01:14.751Z,15.70
2022-11-23T07:02:14.683Z,16.00
2022-11-23T07:03:14.706Z,16.70
2022-11-23T07:04:14.665Z,16.80
2022-11-23T07:05:14.676Z,15.00
2022-11-23T07:06:14.633Z,19.90
2022-11-23T07:07:14.736Z,16.70
2022-11-23T07:08:14.612Z,15.90
2022-11-23T07:09:14.624Z,17.90
2022-11-23T07:10:14.661Z,14.80
2022-11-23T07:11:14.603Z,19.00
2022-11-23T07:12:14.569Z,13.50
2022-11-23T07:13:14.585Z,17.80
2022-11-23T07:14:14.547Z,15.70
2022-11-23T07:15:14.565Z,13.40
2022-11-23T07:16:14.537Z,15.50
2022-11-23T07:17:17.414Z,15.90
2022-11-23T07:18:14.508Z,15.80
2022-11-23T07:19:14.519Z,13.00
2022-11-23T07:20:14.492Z,16.40
2022-11-23T07:21:14.658Z,14.90
2022-11-23T07:22:14.468Z,18.00
2022-11-23T07:23:14.489Z,14.90
2022-11-23T07:24:14.443Z,13.60
2022-11-23T07:25:14.457Z,14.90
2022-11-23T07:26:14.428Z,19.40
2022-11-23T07:27:14.450Z,13.20
2022-11-23T07:28:14.418Z,16.70
2022-11-23T07:29:14.418Z,15.60
2022-11-23T07:30:14.392Z,17.40
2022-11-23T07:31:14.448Z,12.90
2022-11-23T07:32:14.376Z,16.80
2022-11-23T07:33:14.360Z,11.30
2022-11-23T07:34:14.358Z,15.40
2022-11-23T07:35:14.324Z,11.50
2022-11-23T07:36:14.338Z,11.80
2022-11-23T07:37:14.307Z,13.80
2022-11-23T07:38:14.332Z,11.60
2022-11-23T07:39:14.295Z,15.30
2022-11-23T07:40:14.291Z,13.70
2022-11-23T07:41:14.266Z,11.40
2022-11-23T07:43:14.266Z,14.00
2022-11-23T07:44:14.256Z,12.20
2022-11-23T07:45:14.223Z,11.80
2022-11-23T07:46:14.239Z,11.50
2022-11-23T07:47:14.202Z,11.40
2022-11-23T07:48:14.215Z,13.30
2022-11-23T07:49:14.202Z,13.80
2022-11-23T07:50:14.194Z,13.10
2022-11-23T07:51:14.159Z,15.00
2022-11-23T07:52:14.171Z,12.60
2022-11-23T07:53:14.145Z,12.90
2022-11-23T07:54:14.190Z,16.40
2022-11-23T07:55:14.116Z,14.30
2022-11-23T07:56:14.132Z,12.00
2022-11-23T07:57:14.102Z,13.90
2022-11-23T07:58:14.111Z,11.90
2022-11-23T07:59:14.085Z,12.30
2022-11-23T08:00:14.106Z,9.80
2022-11-23T08:01:14.076Z,12.00
2022-11-23T08:02:14.133Z,11.60
2022-11-23T08:03:30.103Z,14.80
2022-11-23T08:04:14.058Z,12.40
2022-11-23T08:05:14.466Z,10.40
2022-11-23T08:06:14.021Z,12.80
2022-11-23T08:07:14.016Z,12.30
2022-11-23T08:08:14.004Z,10.20
2022-11-23T08:09:13.973Z,12.30
2022-11-23T08:10:13.979Z,13.50
2022-11-23T08:11:13.973Z,9.20
2022-11-23T08:12:13.959Z,11.60
2022-11-23T08:13:13.935Z,13.20
2022-11-23T08:14:13.941Z,13.00
2022-11-23T08:15:13.905Z,12.60
2022-11-23T08:16:13.940Z,11.20
2022-11-23T08:17:13.881Z,11.40
2022-11-23T08:18:13.924Z,12.60
2022-11-23T08:19:13.862Z,9.30
2022-11-23T08:20:13.877Z,9.90
2022-11-23T08:21:13.841Z,10.90
2022-11-23T08:22:15.880Z,11.40
2022-11-23T08:23:13.826Z,14.00
2022-11-23T08:24:13.839Z,8.50
2022-11-23T08:25:13.797Z,10.50
2022-11-23T08:26:14.148Z,10.10
2022-11-23T08:27:13.814Z,9.30
2022-11-23T08:28:13.797Z,9.40
2022-11-23T08:29:13.769Z,10.10
2022-11-23T08:30:13.772Z,9.00
2022-11-23T08:31:13.738Z,8.60
2022-11-23T08:32:13.758Z,10.90
2022-11-23T08:33:13.725Z,7.40
2022-11-23T08:34:13.726Z,11.00
2022-11-23T08:35:13.701Z,10.70
2022-11-23T08:36:13.703Z,12.60
2022-11-23T08:37:13.700Z,9.40
2022-11-23T08:38:13.696Z,9.50
2022-11-23T08:39:13.654Z,12.90
2022-11-23T08:40:13.665Z,9.40
2022-11-23T08:41:13.626Z,9.40
2022-11-23T08:42:13.642Z,10.70
2022-11-23T08:43:13.625Z,10.40
2022-11-23T08:44:13.638Z,10.20
2022-11-23T08:45:13.592Z,8.50
2022-11-23T08:46:13.608Z,8.70
2022-11-23T08:47:13.568Z,12.50
2022-11-23T08:48:13.573Z,12.50
2022-11-23T08:49:13.575Z,10.30
2022-11-23T08:50:13.599Z,12.30
2022-11-23T08:51:13.529Z,17.10
2022-11-23T08:52:13.543Z,10.00
2022-11-23T08:53:13.506Z,10.70
2022-11-23T08:54:13.513Z,8.90
2022-11-23T08:55:13.491Z,10.00
2022-11-23T08:56:13.486Z,8.20
2022-11-23T08:57:13.459Z,10.30
2022-11-23T08:58:13.748Z,9.20
2022-11-23T08:59:13.437Z,9.10
2022-11-23T09:00:13.475Z,10.20
2022-11-23T09:01:13.470Z,8.40
2022-11-23T09:02:13.437Z,9.10
2022-11-23T09:03:13.392Z,9.00
2022-11-23T09:04:19.199Z,9.80
2022-11-23T09:05:13.398Z,10.70
2022-11-23T09:06:13.396Z,9.80
2022-11-23T09:07:13.430Z,10.20
2022-11-23T09:08:13.364Z,10.60
2022-11-23T09:09:13.342Z,12.30
2022-11-23T09:10:17.906Z,10.30
2022-11-23T09:11:13.331Z,9.60
2022-11-23T09:12:13.328Z,11.40
2022-11-23T09:13:13.286Z,11.60
2022-11-23T09:14:13.298Z,11.40
2022-11-23T09:15:13.276Z,11.80
2022-11-23T09:16:13.280Z,9.70
2022-11-23T09:17:13.260Z,8.40
2022-11-23T09:18:13.262Z,8.50
2022-11-23T09:19:13.238Z,9.20
2022-11-23T09:20:13.237Z,9.90
2022-11-23T09:21:13.209Z,9.30
2022-11-23T09:22:13.272Z,9.80
2022-11-23T09:23:14.475Z,11.20
2022-11-23T09:24:13.279Z,10.90
2022-11-23T09:25:13.165Z,11.00
2022-11-23T09:26:13.186Z,10.50
2022-11-23T09:27:13.138Z,10.00
2022-11-23T09:28:13.171Z,9.40
2022-11-23T09:29:13.135Z,10.90
2022-11-23T09:30:13.135Z,10.90
2022-11-23T09:31:13.100Z,11.50
2022-11-23T09:32:13.106Z,9.30
2022-11-23T09:33:13.104Z,10.10
2022-11-23T09:34:13.083Z,10.50
2022-11-23T09:35:13.053Z,11.60
2022-11-23T09:36:13.067Z,10.00
2022-11-23T09:37:13.039Z,8.70
2022-11-23T09:38:13.043Z,11.20
2022-11-23T09:39:13.029Z,12.20
2022-11-23T09:40:13.052Z,10.10
2022-11-23T09:41:12.996Z,10.30
2022-11-23T09:42:13.006Z,9.40
2022-11-23T09:43:12.981Z,10.60
2022-11-23T09:44:13.021Z,10.40
2022-11-23T09:45:12.950Z,12.60
2022-11-23T09:46:12.958Z,9.90
2022-11-23T09:47:12.932Z,11.20
2022-11-23T09:48:12.958Z,10.20
2022-11-23T09:49:12.903Z,10.20
2022-11-23T09:50:12.937Z,9.90
2022-11-23T09:51:12.886Z,12.90
2022-11-23T09:52:12.900Z,8.80
2022-11-23T09:53:12.860Z,8.50
2022-11-23T09:54:12.882Z,12.90
2022-11-23T09:55:12.861Z,12.30
2022-11-23T09:56:12.866Z,11.10
2022-11-23T09:57:12.833Z,11.10
2022-11-23T09:58:12.833Z,10.70
2022-11-23T09:59:12.809Z,11.90
2022-11-23T10:00:12.813Z,12.20
2022-11-23T10:01:12.867Z,10.10
2022-11-23T10:02:12.817Z,13.30
2022-11-23T10:03:12.766Z,12.10
2022-11-23T10:04:12.772Z,9.40
2022-11-23T10:05:12.737Z,10.60
2022-11-23T10:06:12.779Z,12.10
2022-11-23T10:07:12.763Z,11.50
2022-11-23T10:08:12.728Z,11.20
2022-11-23T10:09:12.691Z,9.70
2022-11-23T10:10:12.711Z,13.00
2022-11-23T10:11:12.673Z,8.80
2022-11-23T10:12:12.719Z,11.80
2022-11-23T10:13:12.653Z,12.70
2022-11-23T10:14:12.670Z,9.50
2022-11-23T10:15:12.630Z,10.90
2022-11-23T10:16:12.653Z,10.00
2022-11-23T10:17:12.656Z,10.80
2022-11-23T10:18:12.623Z,12.10
2022-11-23T10:19:12.613Z,11.80
2022-11-23T10:20:12.699Z,12.20
2022-11-23T10:21:12.571Z,10.40
2022-11-23T10:22:12.583Z,13.70
2022-11-23T10:23:12.568Z,9.60
2022-11-23T10:24:12.575Z,11.70
2022-11-23T10:25:12.526Z,13.90
2022-11-23T10:26:12.556Z,11.10
2022-11-23T10:27:12.512Z,11.70
2022-11-23T10:28:12.545Z,12.90
2022-11-23T10:29:12.480Z,13.70
2022-11-23T10:30:12.513Z,12.70
2022-11-23T10:31:12.462Z,12.90
2022-11-23T10:32:12.470Z,11.40
2022-11-23T10:33:12.442Z,14.30
2022-11-23T10:34:12.477Z,12.30
2022-11-23T10:35:12.418Z,11.80
2022-11-23T10:36:12.429Z,13.40
2022-11-23T10:37:12.395Z,13.30
2022-11-23T10:38:18.395Z,13.90
2022-11-23T10:39:12.414Z,14.50
2022-11-23T10:40:12.386Z,11.50
2022-11-23T10:41:12.360Z,17.40
2022-11-23T10:42:12.368Z,10.60
2022-11-23T10:43:12.332Z,11.50
2022-11-23T10:44:12.347Z,13.10
2022-11-23T10:45:12.334Z,11.80
2022-11-23T10:46:12.331Z,12.20
2022-11-23T10:47:12.291Z,11.30
2022-11-23T10:48:12.299Z,11.60
2022-11-23T10:49:12.267Z,12.70
2022-11-23T10:50:12.326Z,12.30
2022-11-23T10:51:12.262Z,13.20
2022-11-23T10:52:12.265Z,13.10
2022-11-23T10:53:12.243Z,12.40
2022-11-23T10:54:12.248Z,11.70
2022-11-23T10:55:12.215Z,13.80
2022-11-23T10:56:12.234Z,13.50
2022-11-23T10:57:12.192Z,12.30
2022-11-23T10:58:12.203Z,12.70
2022-11-23T10:59:12.172Z,12.10
2022-11-23T11:00:12.188Z,14.20
2022-11-23T11:01:12.191Z,10.50
2022-11-23T11:02:12.157Z,12.50
2022-11-23T11:03:12.129Z,18.00
2022-11-23T11:04:12.147Z,12.90
2022-11-23T11:05:12.096Z,16.10
2022-11-23T11:06:12.108Z,11.00
2022-11-23T11:07:12.205Z,14.00
2022-11-23T11:08:12.102Z,11.10
2022-11-23T11:09:13.589Z,10.20
2022-11-23T11:10:12.066Z,11.70
2022-11-23T11:11:12.041Z,14.00
2022-11-23T11:12:12.060Z,14.40
2022-11-23T11:13:12.058Z,14.30
2022-11-23T11:14:12.029Z,9.90
2022-11-23T11:15:12.447Z,10.50
2022-11-23T11:16:12.021Z,13.10
2022-11-23T11:17:12.005Z,14.20
2022-11-23T11:18:11.995Z,13.10
2022-11-23T11:19:11.950Z,14.10
2022-11-23T11:20:11.961Z,12.70
2022-11-23T11:21:11.934Z,12.90
2022-11-23T11:22:11.973Z,13.00
2022-11-23T11:23:11.923Z,11.70
2022-11-23T11:24:11.935Z,11.60
2022-11-23T11:25:11.897Z,13.50
2022-11-23T11:26:11.912Z,12.20
2022-11-23T11:27:11.881Z,13.90
2022-11-23T11:28:11.875Z,11.40
2022-11-23T11:29:11.852Z,10.60
2022-11-23T11:30:11.855Z,11.10
2022-11-23T11:31:11.882Z,12.80
2022-11-23T11:32:11.826Z,10.20
2022-11-23T11:33:11.809Z,14.30
2022-11-23T11:34:11.832Z,13.80
2022-11-23T11:35:14.901Z,13.30
2022-11-23T11:36:11.801Z,13.90
2022-11-23T11:37:11.763Z,12.50
2022-11-23T11:38:11.766Z,11.30
2022-11-23T11:39:19.727Z,14.00
2022-11-23T11:40:11.775Z,11.00
2022-11-23T11:41:11.721Z,9.70
2022-11-23T11:42:11.732Z,13.10
2022-11-23T11:43:11.692Z,12.00
2022-11-23T11:44:11.710Z,11.10
2022-11-23T11:45:11.693Z,10.40
2022-11-23T11:47:11.655Z,12.80
2022-11-23T11:48:11.659Z,11.70
2022-11-23T11:49:11.660Z,11.70
2022-11-23T11:50:11.714Z,12.60
2022-11-23T11:51:11.641Z,11.20
2022-11-23T11:52:11.603Z,12.40
2022-11-23T11:53:11.635Z,12.80
2022-11-23T11:54:11.636Z,14.40
2022-11-23T11:55:11.633Z,12.20
2022-11-23T11:56:11.573Z,10.70
2022-11-23T11:57:11.564Z,11.00
2022-11-23T11:58:11.573Z,13.60
2022-11-23T11:59:11.548Z,10.30
2022-11-23T12:00:11.618Z,12.50
2022-11-23T12:01:11.543Z,11.30
2022-11-23T12:02:11.499Z,13.70
2022-11-23T12:03:11.532Z,13.00
2022-11-23T12:04:11.521Z,11.70
2022-11-23T12:05:11.488Z,9.80
2022-11-23T12:06:11.450Z,12.90
2022-11-23T12:07:11.494Z,9.70
2022-11-23T12:08:11.431Z,11.50
2022-11-23T12:09:11.444Z,12.20
2022-11-23T12:10:11.452Z,10.90
2022-11-23T12:11:11.440Z,10.70
2022-11-23T12:12:11.385Z,13.00
2022-11-23T12:13:11.413Z,10.90
2022-11-23T12:14:11.365Z,12.60
2022-11-23T12:15:33.254Z,10.10
2022-11-23T12:16:11.349Z,12.20
2022-11-23T12:17:32.073Z,12.50
2022-11-23T12:18:11.906Z,12.00
2022-11-23T12:19:11.330Z,11.60
2022-11-23T12:20:11.301Z,11.00
2022-11-23T12:21:11.348Z,10.60
2022-11-23T12:22:11.325Z,11.40
2022-11-23T12:23:11.304Z,13.00
2022-11-23T12:24:11.285Z,11.90
2022-11-23T12:25:11.266Z,13.80
2022-11-23T12:26:11.234Z,11.10
2022-11-23T12:27:11.245Z,8.50
2022-11-23T12:28:11.243Z,12.00
2022-11-23T12:29:11.253Z,10.10
2022-11-23T12:30:11.330Z,12.00
2022-11-23T12:31:11.285Z,12.40
2022-11-23T12:32:11.178Z,12.30
2022-11-23T12:33:11.186Z,10.90
2022-11-23T12:34:11.160Z,10.30
2022-11-23T12:35:11.196Z,12.00
2022-11-23T12:36:11.149Z,12.20
2022-11-23T12:37:11.145Z,8.30
2022-11-23T12:38:11.113Z,13.50
2022-11-23T12:39:11.124Z,11.80
2022-11-23T12:40:11.129Z,11.50
2022-11-23T12:41:11.111Z,11.60
2022-11-23T12:42:11.060Z,11.80
2022-11-23T12:43:11.077Z,11.20
2022-11-23T12:44:11.039Z,10.40
2022-11-23T12:45:11.059Z,10.60
2022-11-23T12:46:11.030Z,12.90
2022-11-23T12:47:11.034Z,10.70
2022-11-23T12:48:11.000Z,9.70
2022-11-23T12:49:11.028Z,10.20
2022-11-23T12:50:10.980Z,12.30
2022-11-23T12:51:11.036Z,12.60
2022-11-23T12:52:10.969Z,14.20
2022-11-23T12:53:10.990Z,13.60
2022-11-23T12:54:11.034Z,14.10
2022-11-23T12:55:15.031Z,11.10
2022-11-23T12:56:10.955Z,12.50
2022-11-23T12:57:10.987Z,12.50
2022-11-23T12:58:10.898Z,9.60
2022-11-23T12:59:10.905Z,12.80
2022-11-23T13:00:10.880Z,11.00
2022-11-23T13:01:10.951Z,11.20
2022-11-23T13:02:10.959Z,11.00
2022-11-23T13:03:10.862Z,9.30